sensor_id;sensor_type;location;lat;lon;timestamp;P1;durP1;ratioP1;P2;durP2;ratioP2
40591;SDS011;26301;42.832;23.918;2022-07-10T00:00:04;11.77;;;7.95;;
40591;SDS011;26301;42.832;23.918;2022-07-10T00:02:32;9.38;;;8.43;;
40591;SDS011;26301;42.832;23.918;2022-07-10T00:04:59;9.27;;;7.97;;
40591;SDS011;26301;42.832;23.918;2022-07-10T00:07:25;12.00;;;8.45;;
40591;SDS011;26301;42.832;23.918;2022-07-10T00:09:51;11.30;;;8.35;;
40591;SDS011;26301;42.832;23.918;2022-07-10T00:12:16;8.68;;;7.75;;
40591;SDS011;26301;42.832;23.918;2022-07-10T00:14:42;9.50;;;8.07;;
40591;SDS011;26301;42.832;23.918;2022-07-10T00:17:08;10.10;;;7.93;;
40591;SDS011;26301;42.832;23.918;2022-07-10T00:19:34;10.80;;;8.52;;
40591;SDS011;26301;42.832;23.918;2022-07-10T00:22:06;10.02;;;8.57;;
40591;SDS011;26301;42.832;23.918;2022-07-10T00:24:32;11.52;;;8.77;;
40591;SDS011;26301;42.832;23.918;2022-07-10T00:26:58;13.10;;;8.20;;
40591;SDS011;26301;42.832;23.918;2022-07-10T00:29:25;9.35;;;8.32;;
40591;SDS011;26301;42.832;23.918;2022-07-10T00:31:51;9.73;;;8.27;;
40591;SDS011;26301;42.832;23.918;2022-07-10T00:34:16;9.60;;;8.60;;
40591;SDS011;26301;42.832;23.918;2022-07-10T00:36:42;9.38;;;7.78;;
40591;SDS011;26301;42.832;23.918;2022-07-10T00:39:09;8.95;;;7.97;;
40591;SDS011;26301;42.832;23.918;2022-07-10T00:41:35;9.50;;;8.35;;
40591;SDS011;26301;42.832;23.918;2022-07-10T00:44:01;8.98;;;8.05;;
40591;SDS011;26301;42.832;23.918;2022-07-10T00:46:28;8.65;;;7.75;;
40591;SDS011;26301;42.832;23.918;2022-07-10T00:48:55;10.73;;;7.72;;
40591;SDS011;26301;42.832;23.918;2022-07-10T00:51:22;10.85;;;8.23;;
40591;SDS011;26301;42.832;23.918;2022-07-10T00:53:50;10.18;;;8.30;;
40591;SDS011;26301;42.832;23.918;2022-07-10T00:56:18;9.20;;;7.40;;
40591;SDS011;26301;42.832;23.918;2022-07-10T00:58:47;12.20;;;8.05;;
40591;SDS011;26301;42.832;23.918;2022-07-10T01:01:14;9.00;;;8.00;;
40591;SDS011;26301;42.832;23.918;2022-07-10T01:03:41;8.00;;;7.18;;
40591;SDS011;26301;42.832;23.918;2022-07-10T01:06:08;9.32;;;7.20;;
40591;SDS011;26301;42.832;23.918;2022-07-10T01:08:35;11.00;;;7.47;;
40591;SDS011;26301;42.832;23.918;2022-07-10T01:11:01;9.10;;;8.10;;
40591;SDS011;26301;42.832;23.918;2022-07-10T01:13:27;9.18;;;7.43;;
40591;SDS011;26301;42.832;23.918;2022-07-10T01:15:54;10.05;;;7.82;;
40591;SDS011;26301;42.832;23.918;2022-07-10T01:18:21;10.93;;;7.68;;
40591;SDS011;26301;42.832;23.918;2022-07-10T01:20:57;12.30;;;7.40;;
40591;SDS011;26301;42.832;23.918;2022-07-10T01:23:23;10.05;;;7.55;;
40591;SDS011;26301;42.832;23.918;2022-07-10T01:25:49;8.73;;;7.80;;
40591;SDS011;26301;42.832;23.918;2022-07-10T01:28:19;9.55;;;8.05;;
40591;SDS011;26301;42.832;23.918;2022-07-10T01:30:46;9.23;;;7.95;;
40591;SDS011;26301;42.832;23.918;2022-07-10T01:33:13;11.02;;;8.02;;
40591;SDS011;26301;42.832;23.918;2022-07-10T01:35:39;9.18;;;8.00;;
40591;SDS011;26301;42.832;23.918;2022-07-10T01:38:06;10.25;;;7.93;;
40591;SDS011;26301;42.832;23.918;2022-07-10T01:40:32;9.27;;;7.90;;
40591;SDS011;26301;42.832;23.918;2022-07-10T01:43:01;14.23;;;7.68;;
40591;SDS011;26301;42.832;23.918;2022-07-10T01:45:27;10.80;;;7.68;;
40591;SDS011;26301;42.832;23.918;2022-07-10T01:47:52;12.52;;;7.43;;
40591;SDS011;26301;42.832;23.918;2022-07-10T01:50:19;13.10;;;7.82;;
40591;SDS011;26301;42.832;23.918;2022-07-10T01:52:45;9.15;;;7.32;;
40591;SDS011;26301;42.832;23.918;2022-07-10T01:55:11;10.05;;;7.20;;
40591;SDS011;26301;42.832;23.918;2022-07-10T01:57:37;8.05;;;7.25;;
40591;SDS011;26301;42.832;23.918;2022-07-10T02:00:03;9.32;;;7.78;;
40591;SDS011;26301;42.832;23.918;2022-07-10T02:02:30;12.65;;;7.72;;
40591;SDS011;26301;42.832;23.918;2022-07-10T02:04:56;11.95;;;8.23;;
40591;SDS011;26301;42.832;23.918;2022-07-10T02:07:23;10.45;;;8.55;;
40591;SDS011;26301;42.832;23.918;2022-07-10T02:09:51;8.82;;;7.93;;
40591;SDS011;26301;42.832;23.918;2022-07-10T02:12:16;11.38;;;8.35;;
40591;SDS011;26301;42.832;23.918;2022-07-10T02:14:42;13.10;;;8.38;;
40591;SDS011;26301;42.832;23.918;2022-07-10T02:17:08;9.77;;;7.90;;
40591;SDS011;26301;42.832;23.918;2022-07-10T02:19:34;11.73;;;8.10;;
40591;SDS011;26301;42.832;23.918;2022-07-10T02:22:00;11.27;;;7.75;;
40591;SDS011;26301;42.832;23.918;2022-07-10T02:24:27;11.52;;;8.02;;
40591;SDS011;26301;42.832;23.918;2022-07-10T02:26:53;10.23;;;8.25;;
40591;SDS011;26301;42.832;23.918;2022-07-10T02:29:20;11.75;;;8.80;;
40591;SDS011;26301;42.832;23.918;2022-07-10T02:31:48;12.18;;;8.23;;
40591;SDS011;26301;42.832;23.918;2022-07-10T02:34:14;9.48;;;8.32;;
40591;SDS011;26301;42.832;23.918;2022-07-10T02:36:43;13.00;;;9.10;;
40591;SDS011;26301;42.832;23.918;2022-07-10T02:39:09;10.80;;;8.57;;
40591;SDS011;26301;42.832;23.918;2022-07-10T02:41:35;10.02;;;8.82;;
40591;SDS011;26301;42.832;23.918;2022-07-10T02:44:01;10.98;;;8.52;;
40591;SDS011;26301;42.832;23.918;2022-07-10T02:46:27;17.02;;;8.82;;
40591;SDS011;26301;42.832;23.918;2022-07-10T02:48:53;14.43;;;9.45;;
40591;SDS011;26301;42.832;23.918;2022-07-10T02:51:19;11.68;;;8.30;;
40591;SDS011;26301;42.832;23.918;2022-07-10T02:53:45;12.52;;;9.30;;
40591;SDS011;26301;42.832;23.918;2022-07-10T02:56:11;14.27;;;9.60;;
40591;SDS011;26301;42.832;23.918;2022-07-10T02:58:37;9.95;;;8.95;;
40591;SDS011;26301;42.832;23.918;2022-07-10T03:01:03;10.65;;;8.82;;
40591;SDS011;26301;42.832;23.918;2022-07-10T03:03:29;13.77;;;8.90;;
40591;SDS011;26301;42.832;23.918;2022-07-10T03:05:55;13.25;;;9.32;;
40591;SDS011;26301;42.832;23.918;2022-07-10T03:08:21;12.75;;;8.73;;
40591;SDS011;26301;42.832;23.918;2022-07-10T03:10:47;10.13;;;8.35;;
40591;SDS011;26301;42.832;23.918;2022-07-10T03:13:13;11.15;;;9.10;;
40591;SDS011;26301;42.832;23.918;2022-07-10T03:15:39;12.20;;;9.02;;
40591;SDS011;26301;42.832;23.918;2022-07-10T03:18:05;9.23;;;7.85;;
40591;SDS011;26301;42.832;23.918;2022-07-10T03:20:31;9.40;;;8.38;;
40591;SDS011;26301;42.832;23.918;2022-07-10T03:23:00;9.77;;;8.77;;
40591;SDS011;26301;42.832;23.918;2022-07-10T03:25:26;9.80;;;8.65;;
40591;SDS011;26301;42.832;23.918;2022-07-10T03:27:52;10.80;;;8.57;;
40591;SDS011;26301;42.832;23.918;2022-07-10T03:30:17;9.38;;;8.40;;
40591;SDS011;26301;42.832;23.918;2022-07-10T03:32:45;9.63;;;7.07;;
40591;SDS011;26301;42.832;23.918;2022-07-10T03:35:11;9.85;;;7.90;;
40591;SDS011;26301;42.832;23.918;2022-07-10T03:37:36;11.50;;;8.32;;
40591;SDS011;26301;42.832;23.918;2022-07-10T03:40:02;11.88;;;7.78;;
40591;SDS011;26301;42.832;23.918;2022-07-10T03:42:28;10.52;;;8.68;;
40591;SDS011;26301;42.832;23.918;2022-07-10T03:44:54;11.93;;;7.60;;
40591;SDS011;26301;42.832;23.918;2022-07-10T03:47:20;10.15;;;8.50;;
40591;SDS011;26301;42.832;23.918;2022-07-10T03:49:46;9.15;;;8.27;;
40591;SDS011;26301;42.832;23.918;2022-07-10T03:52:12;10.10;;;8.73;;
40591;SDS011;26301;42.832;23.918;2022-07-10T03:54:38;9.68;;;8.43;;
40591;SDS011;26301;42.832;23.918;2022-07-10T03:57:04;14.05;;;8.80;;
40591;SDS011;26301;42.832;23.918;2022-07-10T03:59:48;12.55;;;8.63;;
40591;SDS011;26301;42.832;23.918;2022-07-10T04:02:14;8.68;;;7.50;;
40591;SDS011;26301;42.832;23.918;2022-07-10T04:04:40;11.18;;;7.68;;
40591;SDS011;26301;42.832;23.918;2022-07-10T04:07:06;11.50;;;8.38;;
40591;SDS011;26301;42.832;23.918;2022-07-10T04:09:32;10.98;;;8.75;;
40591;SDS011;26301;42.832;23.918;2022-07-10T04:11:58;10.57;;;9.38;;
40591;SDS011;26301;42.832;23.918;2022-07-10T04:14:24;10.07;;;8.23;;
40591;SDS011;26301;42.832;23.918;2022-07-10T04:16:50;12.98;;;8.20;;
40591;SDS011;26301;42.832;23.918;2022-07-10T04:19:16;9.45;;;8.00;;
40591;SDS011;26301;42.832;23.918;2022-07-10T04:21:42;11.40;;;8.10;;
40591;SDS011;26301;42.832;23.918;2022-07-10T04:24:07;10.73;;;8.38;;
40591;SDS011;26301;42.832;23.918;2022-07-10T04:26:33;9.77;;;7.32;;
40591;SDS011;26301;42.832;23.918;2022-07-10T04:28:59;9.57;;;8.68;;
40591;SDS011;26301;42.832;23.918;2022-07-10T04:31:25;9.18;;;8.27;;
40591;SDS011;26301;42.832;23.918;2022-07-10T04:33:51;10.63;;;8.00;;
40591;SDS011;26301;42.832;23.918;2022-07-10T04:36:17;11.90;;;9.07;;
40591;SDS011;26301;42.832;23.918;2022-07-10T04:38:43;9.20;;;8.27;;
40591;SDS011;26301;42.832;23.918;2022-07-10T04:41:09;15.73;;;8.40;;
40591;SDS011;26301;42.832;23.918;2022-07-10T04:43:35;10.90;;;8.57;;
40591;SDS011;26301;42.832;23.918;2022-07-10T04:46:01;9.52;;;8.38;;
40591;SDS011;26301;42.832;23.918;2022-07-10T04:48:27;9.32;;;8.35;;
40591;SDS011;26301;42.832;23.918;2022-07-10T04:50:53;11.90;;;7.70;;
40591;SDS011;26301;42.832;23.918;2022-07-10T04:53:20;9.45;;;8.52;;
40591;SDS011;26301;42.832;23.918;2022-07-10T04:55:45;11.13;;;8.90;;
40591;SDS011;26301;42.832;23.918;2022-07-10T04:58:12;9.80;;;8.77;;
40591;SDS011;26301;42.832;23.918;2022-07-10T05:00:38;12.50;;;8.82;;
40591;SDS011;26301;42.832;23.918;2022-07-10T05:03:04;11.15;;;7.70;;
40591;SDS011;26301;42.832;23.918;2022-07-10T05:05:30;12.27;;;9.15;;
40591;SDS011;26301;42.832;23.918;2022-07-10T05:07:56;9.43;;;7.95;;
40591;SDS011;26301;42.832;23.918;2022-07-10T05:10:24;8.68;;;7.70;;
40591;SDS011;26301;42.832;23.918;2022-07-10T05:12:50;9.50;;;8.48;;
40591;SDS011;26301;42.832;23.918;2022-07-10T05:15:15;9.18;;;7.90;;
40591;SDS011;26301;42.832;23.918;2022-07-10T05:17:41;9.98;;;8.43;;
40591;SDS011;26301;42.832;23.918;2022-07-10T05:20:07;9.48;;;8.43;;
40591;SDS011;26301;42.832;23.918;2022-07-10T05:22:33;13.75;;;12.52;;
40591;SDS011;26301;42.832;23.918;2022-07-10T05:24:59;14.27;;;11.80;;
40591;SDS011;26301;42.832;23.918;2022-07-10T05:27:25;11.98;;;10.65;;
40591;SDS011;26301;42.832;23.918;2022-07-10T05:29:52;10.80;;;9.73;;
40591;SDS011;26301;42.832;23.918;2022-07-10T05:32:17;11.43;;;8.40;;
40591;SDS011;26301;42.832;23.918;2022-07-10T05:34:43;9.30;;;8.40;;
40591;SDS011;26301;42.832;23.918;2022-07-10T05:37:09;8.80;;;7.90;;
40591;SDS011;26301;42.832;23.918;2022-07-10T05:39:35;14.38;;;7.57;;
40591;SDS011;26301;42.832;23.918;2022-07-10T05:42:01;9.30;;;7.97;;
40591;SDS011;26301;42.832;23.918;2022-07-10T05:44:27;11.30;;;7.20;;
40591;SDS011;26301;42.832;23.918;2022-07-10T05:46:53;9.68;;;5.78;;
40591;SDS011;26301;42.832;23.918;2022-07-10T05:49:20;6.00;;;5.40;;
40591;SDS011;26301;42.832;23.918;2022-07-10T05:51:45;5.68;;;5.18;;
40591;SDS011;26301;42.832;23.918;2022-07-10T05:54:11;4.93;;;3.83;;
40591;SDS011;26301;42.832;23.918;2022-07-10T05:56:37;4.75;;;4.25;;
40591;SDS011;26301;42.832;23.918;2022-07-10T05:59:03;5.75;;;4.18;;
40591;SDS011;26301;42.832;23.918;2022-07-10T06:01:29;5.57;;;4.93;;
40591;SDS011;26301;42.832;23.918;2022-07-10T06:03:55;8.18;;;5.78;;
40591;SDS011;26301;42.832;23.918;2022-07-10T06:06:23;7.90;;;5.78;;
40591;SDS011;26301;42.832;23.918;2022-07-10T06:08:48;5.68;;;4.88;;
40591;SDS011;26301;42.832;23.918;2022-07-10T06:11:14;5.82;;;4.50;;
40591;SDS011;26301;42.832;23.918;2022-07-10T06:13:41;8.43;;;5.85;;
40591;SDS011;26301;42.832;23.918;2022-07-10T06:16:07;5.50;;;4.45;;
40591;SDS011;26301;42.832;23.918;2022-07-10T06:18:39;7.35;;;4.25;;
40591;SDS011;26301;42.832;23.918;2022-07-10T06:21:04;13.27;;;5.30;;
40591;SDS011;26301;42.832;23.918;2022-07-10T06:23:30;9.02;;;4.03;;
40591;SDS011;26301;42.832;23.918;2022-07-10T06:25:56;7.00;;;3.90;;
40591;SDS011;26301;42.832;23.918;2022-07-10T06:28:22;7.50;;;4.30;;
40591;SDS011;26301;42.832;23.918;2022-07-10T06:30:56;4.35;;;3.92;;
40591;SDS011;26301;42.832;23.918;2022-07-10T06:33:21;7.00;;;4.60;;
40591;SDS011;26301;42.832;23.918;2022-07-10T06:35:47;4.60;;;4.18;;
40591;SDS011;26301;42.832;23.918;2022-07-10T06:38:13;9.73;;;5.63;;
40591;SDS011;26301;42.832;23.918;2022-07-10T06:40:39;10.43;;;6.57;;
40591;SDS011;26301;42.832;23.918;2022-07-10T06:43:06;4.00;;;3.60;;
40591;SDS011;26301;42.832;23.918;2022-07-10T06:45:32;11.05;;;7.18;;
40591;SDS011;26301;42.832;23.918;2022-07-10T06:47:58;9.27;;;4.05;;
40591;SDS011;26301;42.832;23.918;2022-07-10T06:50:24;4.63;;;3.47;;
40591;SDS011;26301;42.832;23.918;2022-07-10T06:52:54;6.13;;;3.70;;
40591;SDS011;26301;42.832;23.918;2022-07-10T06:55:20;10.50;;;5.90;;
40591;SDS011;26301;42.832;23.918;2022-07-10T06:57:47;5.35;;;3.30;;
40591;SDS011;26301;42.832;23.918;2022-07-10T07:00:13;4.63;;;3.92;;
40591;SDS011;26301;42.832;23.918;2022-07-10T07:02:39;3.50;;;2.90;;
40591;SDS011;26301;42.832;23.918;2022-07-10T07:05:05;10.82;;;5.00;;
40591;SDS011;26301;42.832;23.918;2022-07-10T07:07:31;3.90;;;3.28;;
40591;SDS011;26301;42.832;23.918;2022-07-10T07:09:57;4.40;;;3.33;;
40591;SDS011;26301;42.832;23.918;2022-07-10T07:12:22;8.27;;;3.10;;
40591;SDS011;26301;42.832;23.918;2022-07-10T07:14:48;6.00;;;3.70;;
40591;SDS011;26301;42.832;23.918;2022-07-10T07:17:15;4.15;;;3.08;;
40591;SDS011;26301;42.832;23.918;2022-07-10T07:19:47;11.73;;;7.65;;
40591;SDS011;26301;42.832;23.918;2022-07-10T07:22:32;5.30;;;3.50;;
40591;SDS011;26301;42.832;23.918;2022-07-10T07:25:17;5.22;;;3.72;;
40591;SDS011;26301;42.832;23.918;2022-07-10T07:27:43;5.75;;;4.13;;
40591;SDS011;26301;42.832;23.918;2022-07-10T07:30:10;4.57;;;3.60;;
40591;SDS011;26301;42.832;23.918;2022-07-10T07:32:43;5.05;;;4.35;;
40591;SDS011;26301;42.832;23.918;2022-07-10T07:35:10;9.60;;;6.88;;
40591;SDS011;26301;42.832;23.918;2022-07-10T07:40:04;3.80;;;2.90;;
40591;SDS011;26301;42.832;23.918;2022-07-10T07:42:32;8.85;;;5.88;;
40591;SDS011;26301;42.832;23.918;2022-07-10T07:44:58;9.55;;;7.47;;
40591;SDS011;26301;42.832;23.918;2022-07-10T07:47:25;10.80;;;7.63;;
40591;SDS011;26301;42.832;23.918;2022-07-10T07:49:51;12.35;;;9.57;;
40591;SDS011;26301;42.832;23.918;2022-07-10T07:52:17;10.20;;;6.65;;
40591;SDS011;26301;42.832;23.918;2022-07-10T07:54:43;4.50;;;3.53;;
40591;SDS011;26301;42.832;23.918;2022-07-10T07:57:09;8.68;;;5.63;;
40591;SDS011;26301;42.832;23.918;2022-07-10T07:59:35;6.28;;;3.83;;
40591;SDS011;26301;42.832;23.918;2022-07-10T08:02:00;5.93;;;3.40;;
40591;SDS011;26301;42.832;23.918;2022-07-10T08:04:27;6.15;;;3.83;;
40591;SDS011;26301;42.832;23.918;2022-07-10T08:06:53;4.90;;;3.15;;
40591;SDS011;26301;42.832;23.918;2022-07-10T08:09:19;4.85;;;3.35;;
40591;SDS011;26301;42.832;23.918;2022-07-10T08:11:45;3.45;;;2.60;;
40591;SDS011;26301;42.832;23.918;2022-07-10T08:14:11;5.82;;;3.10;;
40591;SDS011;26301;42.832;23.918;2022-07-10T08:16:38;4.10;;;3.38;;
40591;SDS011;26301;42.832;23.918;2022-07-10T08:19:04;4.65;;;2.92;;
40591;SDS011;26301;42.832;23.918;2022-07-10T08:21:30;4.90;;;4.20;;
40591;SDS011;26301;42.832;23.918;2022-07-10T08:23:57;7.93;;;3.28;;
40591;SDS011;26301;42.832;23.918;2022-07-10T08:26:24;4.35;;;2.70;;
40591;SDS011;26301;42.832;23.918;2022-07-10T08:28:49;9.77;;;6.60;;
40591;SDS011;26301;42.832;23.918;2022-07-10T08:31:15;5.18;;;2.75;;
40591;SDS011;26301;42.832;23.918;2022-07-10T08:33:41;5.22;;;2.90;;
40591;SDS011;26301;42.832;23.918;2022-07-10T08:36:07;6.03;;;2.78;;
40591;SDS011;26301;42.832;23.918;2022-07-10T08:38:33;4.30;;;3.05;;
40591;SDS011;26301;42.832;23.918;2022-07-10T08:40:59;5.30;;;3.28;;
40591;SDS011;26301;42.832;23.918;2022-07-10T08:43:27;4.57;;;2.55;;
40591;SDS011;26301;42.832;23.918;2022-07-10T08:45:54;4.53;;;2.63;;
40591;SDS011;26301;42.832;23.918;2022-07-10T08:48:21;4.07;;;2.97;;
40591;SDS011;26301;42.832;23.918;2022-07-10T08:50:51;5.85;;;2.75;;
40591;SDS011;26301;42.832;23.918;2022-07-10T08:53:20;4.95;;;2.70;;
40591;SDS011;26301;42.832;23.918;2022-07-10T08:55:56;3.85;;;2.40;;
40591;SDS011;26301;42.832;23.918;2022-07-10T08:58:26;4.88;;;2.85;;
40591;SDS011;26301;42.832;23.918;2022-07-10T09:00:52;5.03;;;2.83;;
40591;SDS011;26301;42.832;23.918;2022-07-10T09:03:18;4.32;;;2.90;;
40591;SDS011;26301;42.832;23.918;2022-07-10T09:05:45;4.45;;;2.65;;
40591;SDS011;26301;42.832;23.918;2022-07-10T09:08:27;7.97;;;2.70;;
40591;SDS011;26301;42.832;23.918;2022-07-10T09:11:15;6.65;;;2.60;;
40591;SDS011;26301;42.832;23.918;2022-07-10T09:13:52;5.35;;;3.08;;
40591;SDS011;26301;42.832;23.918;2022-07-10T09:16:41;3.22;;;2.17;;
40591;SDS011;26301;42.832;23.918;2022-07-10T09:19:23;7.68;;;2.47;;
40591;SDS011;26301;42.832;23.918;2022-07-10T09:21:51;4.15;;;2.53;;
40591;SDS011;26301;42.832;23.918;2022-07-10T09:24:18;2.47;;;2.08;;
40591;SDS011;26301;42.832;23.918;2022-07-10T09:26:57;11.02;;;6.65;;
40591;SDS011;26301;42.832;23.918;2022-07-10T09:29:26;3.25;;;2.30;;
40591;SDS011;26301;42.832;23.918;2022-07-10T09:31:52;5.18;;;2.88;;
40591;SDS011;26301;42.832;23.918;2022-07-10T09:37:17;3.35;;;2.00;;
40591;SDS011;26301;42.832;23.918;2022-07-10T09:39:59;5.05;;;2.00;;
40591;SDS011;26301;42.832;23.918;2022-07-10T09:47:36;2.60;;;1.88;;
40591;SDS011;26301;42.832;23.918;2022-07-10T09:50:02;2.83;;;2.00;;
40591;SDS011;26301;42.832;23.918;2022-07-10T09:52:28;2.97;;;1.83;;
40591;SDS011;26301;42.832;23.918;2022-07-10T09:54:57;3.38;;;1.90;;
40591;SDS011;26301;42.832;23.918;2022-07-10T09:57:25;3.17;;;1.65;;
40591;SDS011;26301;42.832;23.918;2022-07-10T09:59:55;4.30;;;2.97;;
40591;SDS011;26301;42.832;23.918;2022-07-10T10:02:22;4.97;;;2.17;;
40591;SDS011;26301;42.832;23.918;2022-07-10T10:04:49;1.95;;;1.50;;
40591;SDS011;26301;42.832;23.918;2022-07-10T10:07:17;5.15;;;1.67;;
40591;SDS011;26301;42.832;23.918;2022-07-10T10:09:48;4.50;;;1.70;;
40591;SDS011;26301;42.832;23.918;2022-07-10T10:12:29;3.53;;;1.80;;
40591;SDS011;26301;42.832;23.918;2022-07-10T10:15:00;2.08;;;1.55;;
40591;SDS011;26301;42.832;23.918;2022-07-10T10:17:27;2.58;;;1.40;;
40591;SDS011;26301;42.832;23.918;2022-07-10T10:19:54;2.50;;;1.80;;
40591;SDS011;26301;42.832;23.918;2022-07-10T10:22:40;4.00;;;1.60;;
40591;SDS011;26301;42.832;23.918;2022-07-10T10:25:09;3.97;;;1.85;;
40591;SDS011;26301;42.832;23.918;2022-07-10T10:27:35;2.08;;;1.50;;
40591;SDS011;26301;42.832;23.918;2022-07-10T10:30:09;1.92;;;1.45;;
40591;SDS011;26301;42.832;23.918;2022-07-10T10:32:42;19.90;;;2.13;;
40591;SDS011;26301;42.832;23.918;2022-07-10T10:37:41;2.50;;;1.75;;
40591;SDS011;26301;42.832;23.918;2022-07-10T10:40:09;2.35;;;1.35;;
40591;SDS011;26301;42.832;23.918;2022-07-10T10:42:55;7.38;;;1.60;;
40591;SDS011;26301;42.832;23.918;2022-07-10T10:45:42;2.95;;;1.58;;
40591;SDS011;26301;42.832;23.918;2022-07-10T10:48:08;4.45;;;1.80;;
40591;SDS011;26301;42.832;23.918;2022-07-10T10:50:50;1.85;;;1.33;;
40591;SDS011;26301;42.832;23.918;2022-07-10T10:53:20;2.50;;;1.50;;
40591;SDS011;26301;42.832;23.918;2022-07-10T10:58:36;3.50;;;1.80;;
40591;SDS011;26301;42.832;23.918;2022-07-10T11:06:39;2.35;;;1.50;;
40591;SDS011;26301;42.832;23.918;2022-07-10T11:12:07;5.95;;;1.65;;
40591;SDS011;26301;42.832;23.918;2022-07-10T11:14:35;1.80;;;1.58;;
40591;SDS011;26301;42.832;23.918;2022-07-10T11:17:03;2.47;;;1.30;;
40591;SDS011;26301;42.832;23.918;2022-07-10T11:19:30;2.25;;;1.20;;
40591;SDS011;26301;42.832;23.918;2022-07-10T11:27:12;3.20;;;1.23;;
40591;SDS011;26301;42.832;23.918;2022-07-10T11:29:55;1.83;;;1.50;;
40591;SDS011;26301;42.832;23.918;2022-07-10T11:32:21;2.40;;;1.70;;
40591;SDS011;26301;42.832;23.918;2022-07-10T11:34:47;9.25;;;1.60;;
40591;SDS011;26301;42.832;23.918;2022-07-10T11:37:16;6.35;;;1.23;;
40591;SDS011;26301;42.832;23.918;2022-07-10T11:39:42;1.10;;;1.00;;
40591;SDS011;26301;42.832;23.918;2022-07-10T11:42:08;3.35;;;1.80;;
40591;SDS011;26301;42.832;23.918;2022-07-10T11:44:34;1.98;;;1.40;;
40591;SDS011;26301;42.832;23.918;2022-07-10T11:47:00;1.98;;;1.50;;
40591;SDS011;26301;42.832;23.918;2022-07-10T11:49:28;5.15;;;1.38;;
40591;SDS011;26301;42.832;23.918;2022-07-10T11:51:54;4.45;;;1.50;;
40591;SDS011;26301;42.832;23.918;2022-07-10T11:54:25;2.60;;;1.60;;
40591;SDS011;26301;42.832;23.918;2022-07-10T11:56:52;3.95;;;2.33;;
40591;SDS011;26301;42.832;23.918;2022-07-10T11:59:23;2.42;;;1.30;;
40591;SDS011;26301;42.832;23.918;2022-07-10T12:01:51;7.05;;;1.90;;
40591;SDS011;26301;42.832;23.918;2022-07-10T12:04:19;3.55;;;1.30;;
40591;SDS011;26301;42.832;23.918;2022-07-10T12:06:49;3.22;;;1.52;;
40591;SDS011;26301;42.832;23.918;2022-07-10T12:09:17;2.33;;;1.35;;
40591;SDS011;26301;42.832;23.918;2022-07-10T12:12:04;3.67;;;1.40;;
40591;SDS011;26301;42.832;23.918;2022-07-10T12:14:34;2.00;;;1.40;;
40591;SDS011;26301;42.832;23.918;2022-07-10T12:17:00;3.97;;;1.42;;
40591;SDS011;26301;42.832;23.918;2022-07-10T12:19:31;3.47;;;1.30;;
40591;SDS011;26301;42.832;23.918;2022-07-10T12:22:03;2.28;;;1.10;;
40591;SDS011;26301;42.832;23.918;2022-07-10T12:24:30;2.00;;;1.33;;
40591;SDS011;26301;42.832;23.918;2022-07-10T12:26:56;1.30;;;1.00;;
40591;SDS011;26301;42.832;23.918;2022-07-10T12:31:50;3.10;;;1.40;;
40591;SDS011;26301;42.832;23.918;2022-07-10T12:34:32;1.67;;;1.20;;
40591;SDS011;26301;42.832;23.918;2022-07-10T12:37:07;1.98;;;1.10;;
40591;SDS011;26301;42.832;23.918;2022-07-10T12:39:45;7.10;;;1.42;;
40591;SDS011;26301;42.832;23.918;2022-07-10T12:42:12;3.03;;;1.20;;
40591;SDS011;26301;42.832;23.918;2022-07-10T12:44:43;2.78;;;1.38;;
40591;SDS011;26301;42.832;23.918;2022-07-10T12:47:13;2.05;;;1.27;;
40591;SDS011;26301;42.832;23.918;2022-07-10T12:52:34;1.88;;;1.20;;
40591;SDS011;26301;42.832;23.918;2022-07-10T12:57:59;2.22;;;1.35;;
40591;SDS011;26301;42.832;23.918;2022-07-10T13:00:31;1.83;;;1.33;;
40591;SDS011;26301;42.832;23.918;2022-07-10T13:03:06;3.22;;;1.40;;
40591;SDS011;26301;42.832;23.918;2022-07-10T13:11:03;2.60;;;1.40;;
40591;SDS011;26301;42.832;23.918;2022-07-10T13:13:29;5.15;;;1.33;;
40591;SDS011;26301;42.832;23.918;2022-07-10T13:15:55;2.03;;;1.35;;
40591;SDS011;26301;42.832;23.918;2022-07-10T13:18:26;4.35;;;1.70;;
40591;SDS011;26301;42.832;23.918;2022-07-10T13:20:56;4.53;;;2.03;;
40591;SDS011;26301;42.832;23.918;2022-07-10T13:23:23;4.88;;;1.63;;
40591;SDS011;26301;42.832;23.918;2022-07-10T13:25:51;5.55;;;2.00;;
40591;SDS011;26301;42.832;23.918;2022-07-10T13:28:18;3.88;;;1.45;;
40591;SDS011;26301;42.832;23.918;2022-07-10T13:30:45;3.70;;;1.65;;
40591;SDS011;26301;42.832;23.918;2022-07-10T13:33:12;4.40;;;1.83;;
40591;SDS011;26301;42.832;23.918;2022-07-10T13:35:39;5.85;;;1.77;;
40591;SDS011;26301;42.832;23.918;2022-07-10T13:38:10;5.43;;;1.80;;
40591;SDS011;26301;42.832;23.918;2022-07-10T13:40:38;2.75;;;1.73;;
40591;SDS011;26301;42.832;23.918;2022-07-10T13:43:04;3.47;;;2.03;;
40591;SDS011;26301;42.832;23.918;2022-07-10T13:45:31;2.90;;;1.55;;
40591;SDS011;26301;42.832;23.918;2022-07-10T13:48:08;2.63;;;1.55;;
40591;SDS011;26301;42.832;23.918;2022-07-10T13:50:44;1.98;;;1.67;;
40591;SDS011;26301;42.832;23.918;2022-07-10T13:53:13;2.75;;;1.63;;
40591;SDS011;26301;42.832;23.918;2022-07-10T13:55:39;3.40;;;1.50;;
40591;SDS011;26301;42.832;23.918;2022-07-10T13:58:05;3.60;;;1.77;;
40591;SDS011;26301;42.832;23.918;2022-07-10T14:00:31;5.60;;;2.08;;
40591;SDS011;26301;42.832;23.918;2022-07-10T14:02:58;2.33;;;1.40;;
40591;SDS011;26301;42.832;23.918;2022-07-10T14:05:25;3.25;;;1.83;;
40591;SDS011;26301;42.832;23.918;2022-07-10T14:07:51;1.90;;;1.23;;
40591;SDS011;26301;42.832;23.918;2022-07-10T14:10:17;3.58;;;1.35;;
40591;SDS011;26301;42.832;23.918;2022-07-10T14:12:43;2.53;;;1.38;;
40591;SDS011;26301;42.832;23.918;2022-07-10T14:15:09;5.35;;;1.50;;
40591;SDS011;26301;42.832;23.918;2022-07-10T14:17:35;2.95;;;1.35;;
40591;SDS011;26301;42.832;23.918;2022-07-10T14:20:01;2.35;;;1.20;;
40591;SDS011;26301;42.832;23.918;2022-07-10T14:22:27;3.20;;;1.55;;
40591;SDS011;26301;42.832;23.918;2022-07-10T14:24:53;2.30;;;1.42;;
40591;SDS011;26301;42.832;23.918;2022-07-10T14:27:21;2.40;;;1.52;;
40591;SDS011;26301;42.832;23.918;2022-07-10T14:29:49;2.20;;;1.25;;
40591;SDS011;26301;42.832;23.918;2022-07-10T14:32:22;3.33;;;1.55;;
40591;SDS011;26301;42.832;23.918;2022-07-10T14:34:48;2.85;;;1.58;;
40591;SDS011;26301;42.832;23.918;2022-07-10T14:37:14;4.88;;;1.45;;
40591;SDS011;26301;42.832;23.918;2022-07-10T14:39:40;3.75;;;1.48;;
40591;SDS011;26301;42.832;23.918;2022-07-10T14:42:06;2.03;;;1.10;;
40591;SDS011;26301;42.832;23.918;2022-07-10T14:44:34;4.15;;;1.20;;
40591;SDS011;26301;42.832;23.918;2022-07-10T14:47:01;1.27;;;1.02;;
40591;SDS011;26301;42.832;23.918;2022-07-10T14:49:27;3.42;;;1.33;;
40591;SDS011;26301;42.832;23.918;2022-07-10T14:51:55;3.30;;;1.30;;
40591;SDS011;26301;42.832;23.918;2022-07-10T14:54:21;2.53;;;1.48;;
40591;SDS011;26301;42.832;23.918;2022-07-10T14:56:47;1.85;;;1.15;;
40591;SDS011;26301;42.832;23.918;2022-07-10T14:59:13;2.70;;;1.48;;
40591;SDS011;26301;42.832;23.918;2022-07-10T15:01:38;3.60;;;1.60;;
40591;SDS011;26301;42.832;23.918;2022-07-10T15:04:04;3.63;;;1.40;;
40591;SDS011;26301;42.832;23.918;2022-07-10T15:06:30;3.17;;;1.30;;
40591;SDS011;26301;42.832;23.918;2022-07-10T15:08:56;2.30;;;1.20;;
40591;SDS011;26301;42.832;23.918;2022-07-10T15:11:23;2.20;;;1.38;;
40591;SDS011;26301;42.832;23.918;2022-07-10T15:13:51;4.05;;;1.52;;
40591;SDS011;26301;42.832;23.918;2022-07-10T15:16:23;3.30;;;1.33;;